Time;durP1;ratioP1;P1;durP2;ratioP2;P2;SDS_P1;SDS_P2;PMS_P1;PMS_P2;Temp;Humidity;BMP_temperature;BMP_pressure;BME280_temperature;BME280_humidity;BME280_pressure;Samples;Min_cycle;Max_cycle;Signal;HPM_P1;HPM_P2
2020/12/31 00:01:51;;;;;;;93.87;40.35;;;;;;;3.38;88.22;99438.26;1695619;84;25737;-59
2020/12/31 00:04:18;;;;;;;100.38;40.15;;;;;;;3.38;88.28;99439.59;1695501;84;26006;-56
2020/12/31 00:06:45;;;;;;;91.05;36.10;;;;;;;3.39;88.29;99437.98;1695448;84;25737;-58
2020/12/31 00:09:12;;;;;;;102.35;40.00;;;;;;;3.41;88.22;99439.03;1673011;83;32016;-57
2020/12/31 00:11:39;;;;;;;92.25;40.20;;;;;;;3.41;88.23;99442.50;1638330;85;26037;-55
2020/12/31 00:14:07;;;;;;;102.65;43.50;;;;;;;3.42;88.32;99449.42;1641650;85;25724;-58
2020/12/31 00:16:37;;;;;;;99.28;42.93;;;;;;;3.43;88.34;99456.92;1638175;87;25751;-51
2020/12/31 00:19:04;;;;;;;102.38;42.67;;;;;;;3.43;88.41;99464.39;1638004;87;25911;-56
2020/12/31 00:21:31;;;;;;;109.90;44.23;;;;;;;3.44;88.46;99466.00;1638194;87;25784;-61
2020/12/31 00:23:58;;;;;;;105.07;43.70;;;;;;;3.46;88.47;99471.07;1638108;87;25694;-61
2020/12/31 00:26:25;;;;;;;113.45;45.85;;;;;;;3.46;88.47;99465.72;1638200;87;25861;-62
2020/12/31 00:28:51;;;;;;;108.78;44.48;;;;;;;3.46;88.47;99468.40;1638350;87;26891;-61
2020/12/31 00:31:19;;;;;;;114.95;45.30;;;;;;;3.49;88.47;99478.50;1638042;87;26210;-62
2020/12/31 00:33:46;;;;;;;102.90;43.15;;;;;;;3.48;88.51;99476.38;1638123;87;25930;-60
2020/12/31 00:36:12;;;;;;;104.20;43.33;;;;;;;3.46;88.19;99479.09;1638183;87;26398;-63
2020/12/31 00:38:39;;;;;;;106.87;44.10;;;;;;;3.44;88.18;99474.02;1638067;87;25904;-60
2020/12/31 00:41:06;;;;;;;112.50;43.20;;;;;;;3.44;88.10;99480.70;1637998;87;26962;-65
2020/12/31 00:43:32;;;;;;;110.50;45.25;;;;;;;3.41;87.96;99480.47;1654670;85;25723;-62
2020/12/31 00:45:59;;;;;;;112.65;44.15;;;;;;;3.39;87.94;99482.09;1666409;86;25826;-58
2020/12/31 00:48:26;;;;;;;107.90;42.85;;;;;;;3.36;87.95;99479.42;1666287;86;25654;-58
2020/12/31 00:50:53;;;;;;;109.78;44.18;;;;;;;3.33;87.80;99477.85;1666522;86;25792;-56
2020/12/31 00:53:20;;;;;;;97.42;44.67;;;;;;;3.27;87.69;99478.45;1666456;85;27181;-57
2020/12/31 00:55:46;;;;;;;105.25;43.87;;;;;;;3.18;87.49;99485.45;1666270;86;25810;-55
2020/12/31 00:58:13;;;;;;;105.55;41.80;;;;;;;3.13;87.58;99486.83;1666562;86;25316;-57
2020/12/31 01:00:40;;;;;;;104.92;44.35;;;;;;;3.12;87.78;99483.91;1666464;86;25772;-57
2020/12/31 01:03:07;;;;;;;110.72;40.78;;;;;;;3.09;87.60;99485.80;1666548;85;26414;-56
2020/12/31 01:05:34;;;;;;;103.55;43.23;;;;;;;3.04;87.64;99481.83;1666596;86;25877;-56
2020/12/31 01:08:01;;;;;;;101.30;42.93;;;;;;;2.99;87.67;99485.33;1666485;86;25753;-56
2020/12/31 01:10:28;;;;;;;98.85;43.80;;;;;;;2.94;87.73;99483.48;1649795;86;27171;-58
2020/12/31 01:12:55;;;;;;;98.80;42.03;;;;;;;2.92;87.78;99492.31;1652618;86;25916;-56
2020/12/31 01:15:22;;;;;;;103.80;43.60;;;;;;;2.91;88.00;99491.25;1652460;86;25866;-55
2020/12/31 01:17:49;;;;;;;115.72;46.05;;;;;;;2.90;88.07;99487.80;1652365;86;26776;-55
2020/12/31 01:20:16;;;;;;;103.38;43.08;;;;;;;2.92;88.22;99485.64;1652496;86;25829;-55
2020/12/31 01:22:43;;;;;;;100.58;41.50;;;;;;;2.94;88.32;99488.82;1652486;86;25614;-56
2020/12/31 01:25:09;;;;;;;112.28;39.98;;;;;;;2.94;88.11;99486.70;1652384;86;26557;-56
2020/12/31 01:27:39;;;;;;;119.17;45.15;;;;;;;2.88;87.90;99485.94;1652458;86;25823;-55
2020/12/31 01:30:07;;;;;;;108.78;43.68;;;;;;;2.87;88.06;99486.22;1652530;86;26483;-56
2020/12/31 01:32:33;;;;;;;109.27;41.48;;;;;;;2.85;88.11;99486.49;1652364;86;25591;-52
2020/12/31 01:35:00;;;;;;;115.55;38.53;;;;;;;2.83;87.99;99490.50;1652452;86;25946;-56
2020/12/31 01:37:27;;;;;;;96.35;38.65;;;;;;;2.78;87.89;99492.14;1652472;86;25911;-56
2020/12/31 01:39:53;;;;;;;106.97;39.63;;;;;;;2.74;87.91;99500.97;1652275;86;25778;-55
2020/12/31 01:42:20;;;;;;;99.37;39.50;;;;;;;2.73;88.05;99500.73;1652494;86;26046;-56
2020/12/31 01:44:48;;;;;;;109.25;40.23;;;;;;;2.70;88.00;99494.59;1673945;85;25987;-55
2020/12/31 01:47:16;;;;;;;110.05;37.60;;;;;;;2.66;88.06;99487.67;1675399;85;25804;-56
2020/12/31 01:49:44;;;;;;;98.12;38.05;;;;;;;2.65;88.04;99487.95;1651831;85;25415;-55
2020/12/31 01:52:14;;;;;;;96.40;39.45;;;;;;;2.61;87.97;99487.16;1675547;85;25785;-51
2020/12/31 01:54:45;;;;;;;101.42;39.20;;;;;;;2.60;88.05;99491.44;1675404;85;27023;-57
2020/12/31 01:57:12;;;;;;;102.05;39.42;;;;;;;2.59;88.11;99487.19;1675532;85;25990;-56
2020/12/31 01:59:39;;;;;;;97.62;41.15;;;;;;;2.59;88.19;99487.98;1675279;85;25874;-57
2020/12/31 02:02:07;;;;;;;107.35;43.52;;;;;;;2.59;88.23;99493.86;1675219;85;26121;-54
2020/12/31 02:04:37;;;;;;;91.53;37.05;;;;;;;2.59;88.25;99497.33;1675494;85;25907;-56
2020/12/31 02:07:04;;;;;;;98.40;39.95;;;;;;;2.57;88.14;99504.81;1675575;85;26817;-51
2020/12/31 02:09:31;;;;;;;85.20;37.80;;;;;;;2.57;88.17;99500.81;1680785;84;25832;-53
2020/12/31 02:12:05;;;;;;;101.60;39.48;;;;;;;2.57;88.18;99496.80;1694968;84;25659;-56
2020/12/31 02:14:32;;;;;;;90.72;39.03;;;;;;;2.59;88.18;99495.20;1694959;84;25691;-56
2020/12/31 02:16:59;;;;;;;94.70;39.90;;;;;;;2.59;88.19;99495.98;1694959;84;26594;-53
2020/12/31 02:19:26;;;;;;;95.03;38.15;;;;;;;2.58;88.15;99494.38;1694807;84;27098;-53
2020/12/31 02:21:53;;;;;;;87.22;38.13;;;;;;;2.59;88.05;99499.99;1695034;84;25917;-57
2020/12/31 02:24:20;;;;;;;91.90;36.13;;;;;;;2.57;87.94;99499.98;1694923;84;25760;-56
2020/12/31 02:26:49;;;;;;;88.87;36.20;;;;;;;2.53;87.63;99498.41;1694998;84;25739;-57
2020/12/31 02:29:19;;;;;;;91.90;38.05;;;;;;;2.49;87.55;99497.92;1695226;84;25552;-55
2020/12/31 02:31:47;;;;;;;93.95;38.60;;;;;;;2.48;87.67;99500.31;1694919;84;26147;-53
2020/12/31 02:34:15;;;;;;;85.45;38.78;;;;;;;2.50;87.86;99500.83;1694997;84;26348;-57
2020/12/31 02:36:42;;;;;;;89.60;37.33;;;;;;;2.50;87.88;99508.84;1695076;84;25638;-51
2020/12/31 02:39:12;;;;;;;91.08;35.98;;;;;;;2.50;87.85;99502.17;1694792;84;25775;-56
2020/12/31 02:41:40;;;;;;;97.40;37.67;;;;;;;2.46;87.61;99502.47;1695120;84;25784;-56
2020/12/31 02:44:07;;;;;;;95.53;37.13;;;;;;;2.42;87.48;99507.02;1692311;84;25961;-57
2020/12/31 02:46:35;;;;;;;95.17;37.85;;;;;;;2.37;87.53;99512.92;1689217;84;25734;-53
2020/12/31 02:49:02;;;;;;;90.15;36.88;;;;;;;2.34;87.52;99516.13;1689614;84;25838;-57
2020/12/31 02:51:29;;;;;;;102.40;37.53;;;;;;;2.30;87.60;99513.72;1689538;84;26287;-48
2020/12/31 02:53:55;;;;;;;102.53;37.38;;;;;;;2.28;87.69;99516.66;1689289;84;25829;-57
2020/12/31 02:56:23;;;;;;;100.42;38.98;;;;;;;2.23;87.61;99520.69;1689509;84;25786;-57
2020/12/31 02:58:51;;;;;;;84.77;37.30;;;;;;;2.18;87.57;99524.70;1689505;84;25602;-54
2020/12/31 03:01:19;;;;;;;101.15;38.58;;;;;;;2.11;87.50;99526.86;1689186;84;25747;-55
2020/12/31 03:03:46;;;;;;;105.17;39.18;;;;;;;2.07;87.57;99523.94;1689355;84;25836;-57
2020/12/31 03:06:13;;;;;;;96.08;37.83;;;;;;;2.02;87.55;99522.08;1689553;84;26528;-57
2020/12/31 03:08:40;;;;;;;98.55;40.05;;;;;;;1.99;87.77;99521.31;1684921;84;27296;-57
2020/12/31 03:11:24;;;;;;;102.47;38.10;;;;;;;1.99;87.92;99530.64;1689468;84;25768;-58
2020/12/31 03:13:52;;;;;;;101.05;38.30;;;;;;;1.96;87.82;99528.52;1689373;84;25653;-53
2020/12/31 03:16:22;;;;;;;91.47;40.48;;;;;;;1.95;87.95;99530.11;1689208;84;25763;-57
2020/12/31 03:18:49;;;;;;;91.60;40.12;;;;;;;1.93;87.92;99537.59;1689448;84;25634;-55
2020/12/31 03:21:16;;;;;;;102.85;37.83;;;;;;;1.92;87.94;99542.66;1689343;84;27019;-56
2020/12/31 03:23:43;;;;;;;88.47;38.83;;;;;;;1.88;87.77;99542.39;1689171;84;25935;-54
2020/12/31 03:26:09;;;;;;;99.03;36.85;;;;;;;1.84;87.79;99548.80;1689547;84;25777;-58
2020/12/31 03:28:36;;;;;;;89.92;37.03;;;;;;;1.79;87.59;99549.35;1689444;84;26246;-57
2020/12/31 03:31:03;;;;;;;87.78;37.25;;;;;;;1.75;87.58;99551.73;1689257;84;25462;-57
2020/12/31 03:33:29;;;;;;;92.40;39.23;;;;;;;1.73;87.74;99549.88;1689417;84;25969;-57
2020/12/31 03:35:56;;;;;;;94.32;38.35;;;;;;;1.74;87.93;99550.15;1689211;84;25758;-56
2020/12/31 03:38:23;;;;;;;104.38;40.03;;;;;;;1.73;87.71;99551.20;1689162;84;25931;-54
2020/12/31 03:40:49;;;;;;;107.92;40.00;;;;;;;1.70;87.73;99545.07;1689397;84;25833;-53
2020/12/31 03:43:16;;;;;;;99.42;40.48;;;;;;;1.68;87.67;99553.88;1689502;84;25956;-57
2020/12/31 03:45:43;;;;;;;125.67;40.30;;;;;;;1.66;87.79;99556.02;1694835;84;27462;-57
2020/12/31 03:48:10;;;;;;;94.22;40.15;;;;;;;1.64;87.74;99551.48;1694842;84;25695;-51
2020/12/31 03:50:38;;;;;;;103.20;39.73;;;;;;;1.62;87.78;99554.42;1694899;84;25621;-56
2020/12/31 03:53:05;;;;;;;90.17;39.42;;;;;;;1.60;87.75;99557.89;1694654;84;25795;-57
2020/12/31 03:55:32;;;;;;;94.45;38.70;;;;;;;1.59;87.85;99555.49;1694917;84;25921;-56
2020/12/31 03:58:00;;;;;;;124.00;39.70;;;;;;;1.57;87.81;99557.63;1694988;84;25769;-54
2020/12/31 04:00:27;;;;;;;96.60;38.85;;;;;;;1.55;87.83;99557.07;1694692;84;26070;-56
2020/12/31 04:02:54;;;;;;;98.33;37.80;;;;;;;1.53;87.94;99557.34;1694934;84;25827;-57
2020/12/31 04:05:20;;;;;;;99.07;37.60;;;;;;;1.53;87.87;99560.55;1694850;84;25622;-56
2020/12/31 04:07:47;;;;;;;83.03;37.05;;;;;;;1.46;87.65;99562.96;1694703;84;25657;-57
2020/12/31 04:10:14;;;;;;;76.25;35.00;;;;;;;1.41;87.49;99565.59;1692585;84;26277;-57
2020/12/31 04:12:41;;;;;;;81.90;34.27;;;;;;;1.38;87.65;99570.66;1694827;84;25864;-56
2020/12/31 04:15:07;;;;;;;85.07;35.13;;;;;;;1.34;87.58;99574.93;1694792;84;25666;-56
2020/12/31 04:17:34;;;;;;;89.00;36.42;;;;;;;1.30;87.60;99583.45;1695045;84;25685;-55
2020/12/31 04:20:05;;;;;;;102.05;35.68;;;;;;;1.28;87.76;99588.25;1695108;84;25797;-57
2020/12/31 04:22:32;;;;;;;85.42;33.53;;;;;;;1.25;87.64;99595.43;1694806;84;25796;-50
2020/12/31 04:24:59;;;;;;;81.35;33.78;;;;;;;1.21;87.72;99590.37;1694895;84;25868;-50
2020/12/31 04:27:26;;;;;;;81.30;33.55;;;;;;;1.17;87.65;99585.28;1694757;84;25751;-56
2020/12/31 04:29:52;;;;;;;73.62;32.90;;;;;;;1.14;87.74;99577.81;1694866;84;25752;-56
2020/12/31 04:32:19;;;;;;;83.00;32.05;;;;;;;1.12;87.75;99577.28;1695042;84;25723;-53
2020/12/31 04:34:46;;;;;;;67.15;31.85;;;;;;;1.07;87.52;99578.09;1694877;84;25882;-52
2020/12/31 04:37:12;;;;;;;67.22;31.90;;;;;;;1.00;87.47;99577.52;1694760;84;25712;-57
2020/12/31 04:39:39;;;;;;;63.98;30.77;;;;;;;0.98;87.63;99585.52;1694903;84;25751;-58
2020/12/31 04:42:06;;;;;;;70.90;28.73;;;;;;;0.96;87.80;99595.10;1694869;84;25828;-57
2020/12/31 04:44:34;;;;;;;70.35;29.32;;;;;;;0.95;87.79;99600.69;1694893;84;25923;-57
2020/12/31 04:47:03;;;;;;;60.75;26.40;;;;;;;0.91;87.80;99601.75;1694992;84;25928;-52
2020/12/31 04:49:42;;;;;;;59.65;28.95;;;;;;;0.87;87.62;99616.11;1694954;84;25778;-59
2020/12/31 04:52:08;;;;;;;68.78;27.45;;;;;;;0.82;87.61;99622.75;1694749;84;25757;-59
2020/12/31 04:54:42;;;;;;;69.20;26.57;;;;;;;0.79;87.59;99627.80;1694829;84;25875;-58
2020/12/31 04:57:11;;;;;;;68.40;26.40;;;;;;;0.72;87.70;99626.16;1649190;84;25914;-54
2020/12/31 04:59:38;;;;;;;67.05;29.18;;;;;;;0.70;87.79;99631.50;1694533;84;26954;-57
2020/12/31 05:02:07;;;;;;;79.22;29.18;;;;;;;0.70;88.01;99634.16;1694849;84;26426;-56
2020/12/31 05:04:43;;;;;;;61.30;27.87;;;;;;;0.74;88.15;99627.24;1845954;76;35356;-55
2020/12/31 05:07:10;;;;;;;65.10;26.90;;;;;;;0.68;88.32;99630.93;1815825;78;25800;-57
2020/12/31 05:09:38;;;;;;;67.53;27.62;;;;;;;0.70;88.51;99640.81;1786199;78;25759;-58
2020/12/31 05:12:04;;;;;;;80.53;32.38;;;;;;;0.74;88.63;99645.88;1752271;81;25770;-53
2020/12/31 05:14:34;;;;;;;78.52;31.05;;;;;;;0.77;88.73;99646.70;1751925;81;25704;-48
2020/12/31 05:17:17;;;;;;;;;;;;;;;0.80;88.88;99654.17;1754882;81;25788;-51
2020/12/31 05:19:45;;;;;;;74.05;28.60;;;;;;;0.84;88.92;99659.77;1752322;81;26492;-57
2020/12/31 05:22:15;;;;;;;75.37;32.28;;;;;;;0.84;88.88;99663.77;1752223;81;25777;-58
2020/12/31 05:24:49;;;;;;;78.12;28.85;;;;;;;0.83;88.86;99670.14;1751946;81;25833;-53
2020/12/31 05:27:26;;;;;;;61.25;27.35;;;;;;;0.84;88.96;99662.44;1752223;81;25710;-57
2020/12/31 05:30:05;;;;;;;69.45;27.37;;;;;;;0.81;88.85;99665.07;1752359;81;25679;-57
2020/12/31 05:32:39;;;;;;;76.72;30.30;;;;;;;0.80;88.80;99663.48;1752386;81;25838;-58
2020/12/31 05:35:15;;;;;;;83.00;29.00;;;;;;;0.80;88.82;99661.33;1752246;81;26887;-58
2020/12/31 05:37:43;;;;;;;78.65;28.30;;;;;;;0.78;88.92;99657.59;1751966;81;25838;-54
2020/12/31 05:40:12;;;;;;;80.40;29.25;;;;;;;0.77;88.96;99658.67;1752343;81;25794;-57
2020/12/31 05:42:41;;;;;;;72.00;28.17;;;;;;;0.73;88.88;99661.06;1752437;81;25861;-58
2020/12/31 05:45:18;;;;;;;71.55;30.02;;;;;;;0.71;88.89;99661.82;1725064;81;25874;-58
2020/12/31 05:47:49;;;;;;;65.20;29.87;;;;;;;0.69;88.87;99657.83;1752263;81;26667;-57
2020/12/31 05:50:26;;;;;;;61.02;27.48;;;;;;;0.72;89.13;99659.44;1752210;81;25581;-56
2020/12/31 05:52:54;;;;;;;59.10;26.40;;;;;;;0.76;89.26;99664.25;1752160;81;25847;-57
2020/12/31 05:55:23;;;;;;;63.08;28.85;;;;;;;0.76;89.15;99665.59;1752151;81;25706;-56
2020/12/31 05:57:56;;;;;;;72.40;29.37;;;;;;;0.75;89.15;99664.80;1752550;81;25842;-56
2020/12/31 06:00:28;;;;;;;62.80;27.65;;;;;;;0.74;89.19;99671.96;1752002;81;26820;-52
2020/12/31 06:03:00;;;;;;;63.38;28.70;;;;;;;0.79;89.36;99675.73;1752269;81;25747;-55
2020/12/31 06:05:29;;;;;;;76.60;27.98;;;;;;;0.82;89.46;99674.67;1752307;81;25640;-51
2020/12/31 06:07:59;;;;;;;65.70;26.87;;;;;;;0.82;89.30;99675.18;1752051;81;25641;-55
2020/12/31 06:10:29;;;;;;;75.32;30.80;;;;;;;0.81;89.23;99685.58;1737039;80;25872;-53
2020/12/31 06:12:57;;;;;;;;;;;;;;;0.81;89.27;99686.38;1740081;81;26742;-54
2020/12/31 06:15:37;;;;;;;71.80;28.35;;;;;;;0.81;89.30;99690.91;1736790;81;25833;-54
2020/12/31 06:18:07;;;;;;;68.57;28.52;;;;;;;0.80;89.41;99692.77;1736930;81;25738;-55
2020/12/31 06:20:38;;;;;;;64.82;27.95;;;;;;;0.79;89.48;99689.83;1736882;82;25699;-57
2020/12/31 06:23:15;;;;;;;69.22;28.55;;;;;;;0.80;89.54;99686.63;1736937;81;25816;-56
2020/12/31 06:25:45;;;;;;;58.70;24.75;;;;;;;0.81;89.60;99693.03;1737038;81;26677;-56
2020/12/31 06:28:18;;;;;;;60.63;24.77;;;;;;;0.80;89.37;99688.78;1736300;81;25780;-55
2020/12/31 06:30:52;;;;;;;60.70;27.20;;;;;;;0.79;89.25;99696.48;1736687;81;25836;-55
2020/12/31 06:33:32;;;;;;;69.62;26.97;;;;;;;0.77;89.27;99699.12;1736494;81;25796;-56
2020/12/31 06:36:01;;;;;;;;;;;;;;;0.78;89.37;99706.06;1739431;81;25715;-49
2020/12/31 06:38:40;;;;;;;53.92;24.92;;;;;;;0.78;89.40;99700.73;1736603;81;26784;-54
2020/12/31 06:41:35;;;;;;;68.75;26.42;;;;;;;0.79;89.57;99699.69;1736920;81;30774;-56
2020/12/31 06:44:14;;;;;;;63.60;26.60;;;;;;;0.81;89.71;99696.23;1736563;81;25855;-51
2020/12/31 06:46:47;;;;;;;66.02;28.60;;;;;;;0.79;89.56;99692.49;1737187;81;25781;-56
2020/12/31 06:49:16;;;;;;;60.33;26.05;;;;;;;0.79;89.67;99689.83;1736888;81;26497;-48
2020/12/31 06:51:43;;;;;;;61.30;27.13;;;;;;;0.82;89.72;99693.82;1736665;81;26091;-51
2020/12/31 06:54:11;;;;;;;63.95;28.02;;;;;;;0.83;89.66;99698.09;1736800;81;25841;-57
2020/12/31 06:56:50;;;;;;;67.75;29.05;;;;;;;0.86;89.75;99698.38;1736950;81;26321;-52
2020/12/31 06:59:38;;;;;;;69.03;28.23;;;;;;;0.90;89.80;99699.48;1736496;81;26319;-56
2020/12/31 07:02:20;;;;;;;70.00;26.35;;;;;;;0.90;89.71;99698.15;1736809;82;25707;-53
2020/12/31 07:04:47;;;;;;;65.75;28.15;;;;;;;0.92;89.65;99695.23;1738948;81;26102;-47
2020/12/31 07:07:24;;;;;;;58.63;26.90;;;;;;;0.90;89.67;99691.49;1739391;82;26512;-55
2020/12/31 07:09:56;;;;;;;65.85;27.32;;;;;;;0.89;89.45;99692.54;1727619;82;25653;-56
2020/12/31 07:12:45;;;;;;;61.60;28.35;;;;;;;0.88;89.36;99693.59;1747369;82;26494;-56
2020/12/31 07:15:10;;;;;;;63.48;30.45;;;;;;;0.87;89.47;99693.84;1747301;81;25852;-53
2020/12/31 07:17:42;;;;;;;57.25;26.15;;;;;;;0.89;89.60;99694.41;1747675;81;28019;-55
2020/12/31 07:20:17;;;;;;;61.25;27.20;;;;;;;0.92;89.72;99698.69;1747521;81;26068;-52
2020/12/31 07:22:50;;;;;;;63.10;27.25;;;;;;;0.93;89.60;99698.94;1747966;82;26275;-57
2020/12/31 07:25:18;;;;;;;63.95;26.23;;;;;;;0.96;89.60;99697.63;1746777;80;25769;-55
2020/12/31 07:27:47;;;;;;;62.93;27.07;;;;;;;0.95;89.49;99693.36;1744451;80;25775;-56
2020/12/31 07:30:19;;;;;;;66.70;26.50;;;;;;;0.97;89.50;99691.26;1732156;80;25989;-55
2020/12/31 07:33:09;;;;;;;57.38;25.52;;;;;;;0.99;89.58;99694.45;1747565;82;25828;-52
2020/12/31 07:35:51;;;;;;;64.92;25.50;;;;;;;0.98;89.43;99692.84;1728736;82;25902;-58
2020/12/31 07:38:19;;;;;;;65.97;26.23;;;;;;;1.00;89.50;99695.25;1717933;83;26048;-55
2020/12/31 07:40:53;;;;;;;69.47;27.73;;;;;;;0.99;89.46;99701.12;1718217;83;25795;-55
2020/12/31 07:43:27;;;;;;;57.62;27.32;;;;;;;0.96;89.32;99699.50;1717784;83;25846;-54
2020/12/31 07:45:58;;;;;;;69.75;27.48;;;;;;;0.92;89.42;99692.03;1717910;83;26229;-56
2020/12/31 07:48:26;;;;;;;73.60;25.57;;;;;;;0.93;89.40;99690.16;1717440;83;25900;-56
2020/12/31 07:50:59;;;;;;;69.15;25.62;;;;;;;0.93;89.46;99698.94;1717868;83;25930;-53
2020/12/31 07:53:26;;;;;;;67.15;25.77;;;;;;;0.92;89.42;99700.02;1717996;83;25844;-55
2020/12/31 07:55:54;;;;;;;67.10;26.45;;;;;;;0.96;89.52;99699.50;1717935;83;26223;-56
2020/12/31 07:58:23;;;;;;;65.40;25.70;;;;;;;0.97;89.58;99701.09;1717711;83;25799;-53
2020/12/31 08:01:05;;;;;;;64.07;24.83;;;;;;;0.98;89.60;99697.38;1718094;83;25870;-54
2020/12/31 08:03:33;;;;;;;53.35;22.95;;;;;;;0.96;89.42;99694.97;1717915;83;25784;-53
2020/12/31 08:06:03;;;;;;;67.03;25.80;;;;;;;0.93;89.37;99688.28;1719769;83;25711;-54
2020/12/31 08:08:31;;;;;;;60.95;25.68;;;;;;;0.94;89.42;99683.78;1719987;83;25785;-52
2020/12/31 08:11:07;;;;;;;73.80;26.17;;;;;;;0.92;89.39;99681.37;1717297;83;25898;-55
2020/12/31 08:13:35;;;;;;;68.87;25.85;;;;;;;0.96;89.54;99688.85;1719917;82;25747;-52
2020/12/31 08:16:02;;;;;;;61.92;25.02;;;;;;;0.96;89.56;99696.30;1696239;80;25780;-55
2020/12/31 08:18:29;;;;;;;63.87;24.67;;;;;;;1.01;89.73;99709.64;1737398;80;26105;-56
2020/12/31 08:20:59;;;;;;;82.00;24.35;;;;;;;1.03;89.72;99708.84;1747029;82;27571;-57
2020/12/31 08:23:33;;;;;;;60.67;25.32;;;;;;;1.03;89.36;99716.05;1734868;80;25766;-51
2020/12/31 08:26:03;;;;;;;50.98;22.52;;;;;;;1.00;89.13;99716.55;1744166;80;25820;-58
2020/12/31 08:28:30;;;;;;;57.60;24.02;;;;;;;0.95;89.05;99712.53;1778054;80;35306;-52
2020/12/31 08:30:58;;;;;;;60.50;23.77;;;;;;;0.96;89.13;99720.81;1778017;80;25812;-57
2020/12/31 08:33:26;;;;;;;51.65;23.18;;;;;;;0.95;89.18;99713.33;1778129;80;25865;-56
2020/12/31 08:35:53;;;;;;;51.05;23.85;;;;;;;0.94;89.10;99711.74;1735815;82;26385;-55
2020/12/31 08:38:23;;;;;;;50.83;24.27;;;;;;;0.96;89.34;99718.14;1778046;80;25784;-53
2020/12/31 08:40:58;;;;;;;61.18;25.10;;;;;;;0.99;89.40;99717.61;1763852;80;25808;-57
2020/12/31 08:43:35;;;;;;;49.77;22.75;;;;;;;0.97;89.12;99718.40;1765096;80;25855;-53
2020/12/31 08:46:06;;;;;;;48.45;22.58;;;;;;;0.92;89.15;99724.52;1764993;81;25768;-54
2020/12/31 08:48:35;;;;;;;53.75;23.77;;;;;;;0.95;89.36;99728.52;1756148;81;25694;-55
2020/12/31 08:51:10;;;;;;;52.10;23.87;;;;;;;0.98;89.52;99728.80;1747179;82;25816;-55
2020/12/31 08:53:52;;;;;;;49.70;24.12;;;;;;;1.00;89.49;99734.66;1747199;82;25771;-53
2020/12/31 08:56:22;;;;;;;47.50;22.17;;;;;;;0.98;89.27;99730.67;1746277;81;26460;-53
2020/12/31 08:58:48;;;;;;;51.00;21.87;;;;;;;0.95;89.06;99729.31;1747337;82;32970;-53
2020/12/31 09:01:25;;;;;;;54.13;22.20;;;;;;;0.93;89.07;99722.91;1747332;82;25635;-55
2020/12/31 09:04:14;;;;;;;53.05;24.30;;;;;;;0.93;89.22;99718.12;1747035;81;26105;-55
2020/12/31 09:06:45;;;;;;;53.92;22.65;;;;;;;0.96;89.27;99723.47;1751115;81;25946;-54
2020/12/31 09:09:20;;;;;;;47.50;20.88;;;;;;;0.95;89.15;99723.98;1751325;81;25736;-56
2020/12/31 09:12:03;;;;;;;49.00;19.92;;;;;;;0.94;89.19;99723.73;1712656;80;25944;-55
2020/12/31 09:14:33;;;;;;;59.98;19.30;;;;;;;0.94;89.11;99737.05;1714146;83;25830;-54
2020/12/31 09:17:00;;;;;;;49.58;20.72;;;;;;;0.91;88.98;99738.89;1716660;82;25792;-59
2020/12/31 09:19:27;;;;;;;41.25;19.80;;;;;;;0.89;88.88;99739.68;1722724;82;26143;-57
2020/12/31 09:21:54;;;;;;;43.00;20.95;;;;;;;0.89;89.10;99738.34;1709285;82;25922;-58
2020/12/31 09:24:23;;;;;;;50.58;18.75;;;;;;;0.91;89.18;99736.22;1712121;83;26181;-57
2020/12/31 09:26:55;;;;;;;43.80;19.70;;;;;;;0.94;89.25;99749.03;1712091;83;25779;-60
2020/12/31 09:29:23;;;;;;;39.83;18.52;;;;;;;0.90;88.79;99749.25;1711720;83;25732;-59
2020/12/31 09:31:54;;;;;;;38.88;17.65;;;;;;;0.85;88.73;99751.38;1712107;83;25681;-58
2020/12/31 09:34:21;;;;;;;37.08;18.42;;;;;;;0.82;88.68;99753.22;1731304;82;25787;-58
2020/12/31 09:36:48;;;;;;;36.70;17.40;;;;;;;0.77;88.49;99755.85;1731688;82;25963;-58
2020/12/31 09:39:15;;;;;;;38.17;16.32;;;;;;;0.74;88.60;99754.48;1731407;82;26592;-55
2020/12/31 09:41:41;;;;;;;45.33;18.05;;;;;;;0.74;88.52;99757.69;1713990;83;26326;-56
2020/12/31 09:44:08;;;;;;;45.10;19.75;;;;;;;0.71;88.59;99755.53;1714141;83;25720;-60
2020/12/31 09:46:35;;;;;;;47.67;17.25;;;;;;;0.70;88.83;99756.61;1714312;83;25862;-56
2020/12/31 09:49:01;;;;;;;48.90;19.65;;;;;;;0.70;88.94;99753.41;1714043;83;26601;-60
2020/12/31 09:51:28;;;;;;;33.58;15.48;;;;;;;0.72;89.16;99752.62;1714351;83;25868;-52
2020/12/31 09:53:54;;;;;;;40.88;17.73;;;;;;;0.76;89.17;99752.11;1714281;83;25840;-58
2020/12/31 09:56:29;;;;;;;42.50;18.00;;;;;;;0.76;89.19;99746.78;1714033;83;25764;-58
2020/12/31 09:58:57;;;;;;;38.20;17.27;;;;;;;0.78;89.03;99751.31;1714316;83;25804;-57
2020/12/31 10:01:26;;;;;;;38.75;17.57;;;;;;;0.78;89.18;99740.13;1714317;83;26165;-56
2020/12/31 10:03:53;;;;;;;45.50;18.77;;;;;;;0.84;89.38;99749.77;1714062;83;25732;-56
2020/12/31 10:06:20;;;;;;;40.25;17.52;;;;;;;0.88;89.40;99741.52;1705388;83;25725;-54
2020/12/31 10:08:48;;;;;;;47.85;18.62;;;;;;;0.90;89.13;99749.25;1704471;84;25755;-55
2020/12/31 10:11:15;;;;;;;43.48;18.25;;;;;;;0.91;89.16;99748.20;1683724;82;25755;-57
2020/12/31 10:13:42;;;;;;;39.88;19.65;;;;;;;0.91;89.01;99749.54;1674933;85;25953;-57
2020/12/31 10:16:08;;;;;;;43.52;18.82;;;;;;;0.91;89.00;99743.67;1634596;87;26454;-57
2020/12/31 10:18:35;;;;;;;41.70;18.45;;;;;;;0.94;89.13;99739.70;1645475;87;25772;-54
2020/12/31 10:21:02;;;;;;;44.40;19.05;;;;;;;0.93;88.90;99746.88;1634387;87;25806;-56
2020/12/31 10:23:29;;;;;;;38.98;17.30;;;;;;;0.89;88.56;99749.80;1645549;87;25727;-57
2020/12/31 10:25:56;;;;;;;36.38;18.15;;;;;;;0.86;88.55;99746.30;1645077;87;26226;-58
2020/12/31 10:28:23;;;;;;;44.48;19.20;;;;;;;0.84;88.54;99749.77;1634749;87;25796;-58
2020/12/31 10:30:50;;;;;;;46.88;20.43;;;;;;;0.82;88.61;99747.07;1686800;84;25873;-54
2020/12/31 10:33:17;;;;;;;41.00;17.62;;;;;;;0.82;88.75;99749.22;1686865;84;25937;-56
2020/12/31 10:35:44;;;;;;;36.00;17.65;;;;;;;0.81;88.69;99745.48;1686785;84;25807;-58
2020/12/31 10:38:11;;;;;;;41.98;19.75;;;;;;;0.80;88.59;99746.53;1686428;84;26793;-61
2020/12/31 10:40:38;;;;;;;44.85;19.67;;;;;;;0.79;88.77;99748.41;1685684;84;26021;-58
2020/12/31 10:43:04;;;;;;;47.45;20.77;;;;;;;0.80;88.71;99747.86;1686696;84;25712;-60
2020/12/31 10:45:31;;;;;;;41.35;19.77;;;;;;;0.78;88.70;99744.13;1678127;84;25874;-58
2020/12/31 10:47:58;;;;;;;53.15;22.22;;;;;;;0.76;88.72;99744.13;1662844;84;25731;-58
2020/12/31 10:50:26;;;;;;;53.33;22.02;;;;;;;0.77;88.82;99741.20;1657527;86;25805;-58
2020/12/31 10:52:53;;;;;;;46.15;20.60;;;;;;;0.76;88.83;99735.59;1607000;89;25869;-57
2020/12/31 10:55:20;;;;;;;46.28;19.82;;;;;;;0.77;88.90;99740.38;1617240;88;25723;-55
2020/12/31 10:57:46;;;;;;;54.98;24.75;;;;;;;0.76;89.00;99732.94;1617540;88;26005;-55
2020/12/31 11:00:13;;;;;;;45.00;21.12;;;;;;;0.81;89.25;99739.63;1617397;88;26712;-60
2020/12/31 11:02:40;;;;;;;55.38;23.98;;;;;;;0.82;89.11;99732.42;1617397;88;26932;-57
2020/12/31 11:05:07;;;;;;;57.13;23.92;;;;;;;0.83;89.17;99730.05;1618483;88;25843;-58
2020/12/31 11:07:34;;;;;;;63.45;26.10;;;;;;;0.87;89.22;99729.80;1622571;88;25885;-56
2020/12/31 11:10:01;;;;;;;53.13;23.40;;;;;;;0.89;89.15;99729.82;1622542;86;25961;-58
2020/12/31 11:12:28;;;;;;;52.10;23.52;;;;;;;0.91;89.17;99725.57;1649384;86;25866;-60
2020/12/31 11:14:54;;;;;;;52.40;22.98;;;;;;;0.93;89.18;99721.58;1649061;86;26378;-56
2020/12/31 11:17:23;;;;;;;60.67;25.37;;;;;;;0.92;89.06;99724.52;1649138;86;25819;-56
2020/12/31 11:19:49;;;;;;;54.93;23.62;;;;;;;0.92;89.09;99721.32;1649106;86;25839;-57
2020/12/31 11:22:16;;;;;;;52.00;23.55;;;;;;;0.93;89.12;99722.91;1649129;86;26317;-59
2020/12/31 11:24:43;;;;;;;57.00;24.80;;;;;;;0.92;89.07;99720.53;1648870;86;25832;-56
2020/12/31 11:27:09;;;;;;;67.45;25.12;;;;;;;0.96;89.19;99718.14;1649178;86;26291;-56
2020/12/31 11:29:36;;;;;;;66.28;28.60;;;;;;;0.98;89.24;99720.02;1649160;86;25798;-55
2020/12/31 11:32:03;;;;;;;62.03;27.45;;;;;;;0.98;89.35;99723.47;1649059;86;25851;-55
2020/12/31 11:34:30;;;;;;;58.95;26.35;;;;;;;0.98;89.25;99716.81;1649221;86;25741;-55